Search for airport 
image banner adimage banner adimage banner ad
image banner ad

CL15 - Sce Ridgecrest Service Center

Located in Ridgecrest, United States

ICAO - CL15, IATA -

Data provided by Airmate  

General information

Coordinates: N35°36'53" W117°40'6"
Elevation is 2288 feet MSL.
Magnetic variation is 14° East
View others Airports in California

Operational data

Special qualification required
Current time UTC:
Current local time:
METAR: KNID 211156Z 27007KT 10SM CLR 27/00 A2980 RMK AO2 SLP061 T02720000 10344 20261 53006 $
View NOTAMs / SUP AIP / TFR affecting this airport [VIEW]
Communications frequencies: [VIEW]

Runways:

Airport contact information

Address: Ridgecrest United States

Satellite view of CL15